sensor_id;sensor_type;location;lat;lon;timestamp;P1;durP1;ratioP1;P2;durP2;ratioP2
49440;SDS011;35317;51.978;6.296;2023-02-26T00:03:37;15.30;;;3.45;;
49440;SDS011;35317;51.978;6.296;2023-02-26T00:08:37;10.07;;;2.33;;
49440;SDS011;35317;51.978;6.296;2023-02-26T00:13:39;9.15;;;2.22;;
49440;SDS011;35317;51.978;6.296;2023-02-26T00:18:41;8.15;;;2.33;;
49440;SDS011;35317;51.978;6.296;2023-02-26T00:23:42;10.82;;;2.33;;
49440;SDS011;35317;51.978;6.296;2023-02-26T00:28:43;12.23;;;2.03;;
49440;SDS011;35317;51.978;6.296;2023-02-26T00:33:45;6.60;;;1.83;;
49440;SDS011;35317;51.978;6.296;2023-02-26T00:44:14;7.32;;;2.10;;
49440;SDS011;35317;51.978;6.296;2023-02-26T00:54:42;11.00;;;1.88;;
49440;SDS011;35317;51.978;6.296;2023-02-26T00:59:43;10.50;;;2.17;;
49440;SDS011;35317;51.978;6.296;2023-02-26T01:04:44;11.90;;;2.13;;
49440;SDS011;35317;51.978;6.296;2023-02-26T01:09:45;7.32;;;1.42;;
49440;SDS011;35317;51.978;6.296;2023-02-26T01:14:46;9.85;;;2.08;;
49440;SDS011;35317;51.978;6.296;2023-02-26T01:25:12;10.30;;;1.88;;
49440;SDS011;35317;51.978;6.296;2023-02-26T01:30:19;8.73;;;1.60;;
49440;SDS011;35317;51.978;6.296;2023-02-26T01:35:38;13.38;;;2.00;;
49440;SDS011;35317;51.978;6.296;2023-02-26T01:41:05;6.65;;;1.55;;
49440;SDS011;35317;51.978;6.296;2023-02-26T01:57:51;13.35;;;1.92;;
49440;SDS011;35317;51.978;6.296;2023-02-26T02:02:55;10.45;;;1.77;;
49440;SDS011;35317;51.978;6.296;2023-02-26T02:07:56;10.35;;;1.80;;
49440;SDS011;35317;51.978;6.296;2023-02-26T02:13:34;7.47;;;2.40;;
49440;SDS011;35317;51.978;6.296;2023-02-26T02:35:49;12.90;;;2.15;;
49440;SDS011;35317;51.978;6.296;2023-02-26T02:41:00;9.75;;;1.83;;
49440;SDS011;35317;51.978;6.296;2023-02-26T02:46:16;11.32;;;2.03;;
49440;SDS011;35317;51.978;6.296;2023-02-26T02:51:27;9.35;;;1.75;;
49440;SDS011;35317;51.978;6.296;2023-02-26T02:56:39;11.95;;;1.77;;
49440;SDS011;35317;51.978;6.296;2023-02-26T03:02:25;8.00;;;1.80;;
49440;SDS011;35317;51.978;6.296;2023-02-26T03:07:58;4.85;;;1.65;;
49440;SDS011;35317;51.978;6.296;2023-02-26T03:13:12;7.43;;;1.88;;
49440;SDS011;35317;51.978;6.296;2023-02-26T03:24:01;13.77;;;2.53;;
49440;SDS011;35317;51.978;6.296;2023-02-26T03:35:20;6.93;;;1.52;;
49440;SDS011;35317;51.978;6.296;2023-02-26T03:40:36;8.85;;;1.70;;
49440;SDS011;35317;51.978;6.296;2023-02-26T03:45:44;10.13;;;1.90;;
49440;SDS011;35317;51.978;6.296;2023-02-26T03:50:49;6.95;;;1.70;;
49440;SDS011;35317;51.978;6.296;2023-02-26T03:56:00;8.35;;;1.92;;
49440;SDS011;35317;51.978;6.296;2023-02-26T04:01:14;8.30;;;1.65;;
49440;SDS011;35317;51.978;6.296;2023-02-26T04:06:24;8.38;;;2.25;;
49440;SDS011;35317;51.978;6.296;2023-02-26T04:11:25;8.05;;;1.60;;
49440;SDS011;35317;51.978;6.296;2023-02-26T04:16:28;10.40;;;1.63;;
49440;SDS011;35317;51.978;6.296;2023-02-26T04:21:29;11.20;;;2.03;;
49440;SDS011;35317;51.978;6.296;2023-02-26T04:26:30;7.60;;;1.70;;
49440;SDS011;35317;51.978;6.296;2023-02-26T04:31:30;12.80;;;2.28;;
49440;SDS011;35317;51.978;6.296;2023-02-26T04:36:31;7.22;;;1.30;;
49440;SDS011;35317;51.978;6.296;2023-02-26T04:41:32;13.88;;;2.42;;
49440;SDS011;35317;51.978;6.296;2023-02-26T04:46:33;13.23;;;1.58;;
49440;SDS011;35317;51.978;6.296;2023-02-26T04:51:34;9.18;;;1.77;;
49440;SDS011;35317;51.978;6.296;2023-02-26T04:56:35;7.65;;;1.73;;
49440;SDS011;35317;51.978;6.296;2023-02-26T05:01:35;8.40;;;1.38;;
49440;SDS011;35317;51.978;6.296;2023-02-26T05:06:36;9.07;;;1.25;;
49440;SDS011;35317;51.978;6.296;2023-02-26T05:11:37;6.47;;;1.40;;
49440;SDS011;35317;51.978;6.296;2023-02-26T05:16:37;7.95;;;1.30;;
49440;SDS011;35317;51.978;6.296;2023-02-26T05:21:38;6.85;;;2.70;;
49440;SDS011;35317;51.978;6.296;2023-02-26T05:26:39;11.10;;;2.78;;
49440;SDS011;35317;51.978;6.296;2023-02-26T05:31:40;8.10;;;1.40;;
49440;SDS011;35317;51.978;6.296;2023-02-26T05:36:41;9.68;;;1.40;;
49440;SDS011;35317;51.978;6.296;2023-02-26T05:41:42;7.43;;;1.40;;
49440;SDS011;35317;51.978;6.296;2023-02-26T05:46:45;6.72;;;1.52;;
49440;SDS011;35317;51.978;6.296;2023-02-26T05:51:46;6.75;;;1.20;;
49440;SDS011;35317;51.978;6.296;2023-02-26T05:56:46;3.53;;;1.02;;
49440;SDS011;35317;51.978;6.296;2023-02-26T06:01:47;6.03;;;1.13;;
49440;SDS011;35317;51.978;6.296;2023-02-26T06:06:48;7.18;;;1.10;;
49440;SDS011;35317;51.978;6.296;2023-02-26T06:11:49;11.25;;;1.73;;
49440;SDS011;35317;51.978;6.296;2023-02-26T06:16:50;6.53;;;1.20;;
49440;SDS011;35317;51.978;6.296;2023-02-26T06:21:50;7.38;;;1.30;;
49440;SDS011;35317;51.978;6.296;2023-02-26T06:26:51;5.72;;;1.10;;
49440;SDS011;35317;51.978;6.296;2023-02-26T06:31:52;6.70;;;1.92;;
49440;SDS011;35317;51.978;6.296;2023-02-26T06:36:53;11.23;;;1.33;;
49440;SDS011;35317;51.978;6.296;2023-02-26T06:41:54;9.82;;;1.33;;
49440;SDS011;35317;51.978;6.296;2023-02-26T06:46:55;4.95;;;2.03;;
49440;SDS011;35317;51.978;6.296;2023-02-26T06:51:55;7.75;;;1.23;;
49440;SDS011;35317;51.978;6.296;2023-02-26T06:56:56;8.10;;;0.90;;
49440;SDS011;35317;51.978;6.296;2023-02-26T07:01:57;8.35;;;1.92;;
49440;SDS011;35317;51.978;6.296;2023-02-26T07:06:57;6.82;;;2.00;;
49440;SDS011;35317;51.978;6.296;2023-02-26T07:11:58;6.88;;;1.17;;
49440;SDS011;35317;51.978;6.296;2023-02-26T07:16:59;7.28;;;1.40;;
49440;SDS011;35317;51.978;6.296;2023-02-26T07:22:01;7.57;;;1.45;;
49440;SDS011;35317;51.978;6.296;2023-02-26T07:27:02;6.80;;;1.23;;
49440;SDS011;35317;51.978;6.296;2023-02-26T07:32:03;11.13;;;3.13;;
49440;SDS011;35317;51.978;6.296;2023-02-26T07:37:04;5.45;;;1.10;;
49440;SDS011;35317;51.978;6.296;2023-02-26T07:42:05;6.72;;;0.90;;
49440;SDS011;35317;51.978;6.296;2023-02-26T07:47:06;8.18;;;1.10;;
49440;SDS011;35317;51.978;6.296;2023-02-26T07:52:07;5.93;;;1.08;;
49440;SDS011;35317;51.978;6.296;2023-02-26T07:57:07;6.57;;;0.98;;
49440;SDS011;35317;51.978;6.296;2023-02-26T08:02:09;3.35;;;1.10;;
49440;SDS011;35317;51.978;6.296;2023-02-26T08:07:11;4.13;;;0.90;;
49440;SDS011;35317;51.978;6.296;2023-02-26T08:12:12;6.18;;;1.00;;
49440;SDS011;35317;51.978;6.296;2023-02-26T08:17:12;5.88;;;0.90;;
49440;SDS011;35317;51.978;6.296;2023-02-26T08:22:13;8.38;;;1.15;;
49440;SDS011;35317;51.978;6.296;2023-02-26T08:27:14;9.82;;;2.10;;
49440;SDS011;35317;51.978;6.296;2023-02-26T08:32:16;4.97;;;0.85;;
49440;SDS011;35317;51.978;6.296;2023-02-26T08:37:18;5.90;;;1.00;;
49440;SDS011;35317;51.978;6.296;2023-02-26T08:42:21;3.90;;;0.80;;
49440;SDS011;35317;51.978;6.296;2023-02-26T08:47:22;6.60;;;0.85;;
49440;SDS011;35317;51.978;6.296;2023-02-26T08:52:23;13.80;;;1.55;;
49440;SDS011;35317;51.978;6.296;2023-02-26T08:57:24;3.92;;;0.80;;
49440;SDS011;35317;51.978;6.296;2023-02-26T09:02:24;4.35;;;0.90;;
49440;SDS011;35317;51.978;6.296;2023-02-26T09:07:25;5.47;;;1.27;;
49440;SDS011;35317;51.978;6.296;2023-02-26T09:12:26;5.28;;;1.02;;
49440;SDS011;35317;51.978;6.296;2023-02-26T09:17:26;5.18;;;1.15;;
49440;SDS011;35317;51.978;6.296;2023-02-26T09:22:27;5.95;;;1.00;;
49440;SDS011;35317;51.978;6.296;2023-02-26T09:27:28;6.32;;;1.40;;
49440;SDS011;35317;51.978;6.296;2023-02-26T09:32:29;4.10;;;0.88;;
49440;SDS011;35317;51.978;6.296;2023-02-26T09:37:30;3.55;;;0.90;;
49440;SDS011;35317;51.978;6.296;2023-02-26T09:43:18;3.83;;;0.82;;
49440;SDS011;35317;51.978;6.296;2023-02-26T09:48:33;3.35;;;0.90;;
49440;SDS011;35317;51.978;6.296;2023-02-26T09:53:37;2.63;;;0.63;;
49440;SDS011;35317;51.978;6.296;2023-02-26T09:58:40;5.75;;;0.82;;
49440;SDS011;35317;51.978;6.296;2023-02-26T10:20:14;8.35;;;0.70;;
49440;SDS011;35317;51.978;6.296;2023-02-26T10:25:29;1.90;;;0.45;;
49440;SDS011;35317;51.978;6.296;2023-02-26T10:30:39;1.90;;;0.55;;
49440;SDS011;35317;51.978;6.296;2023-02-26T10:35:53;2.45;;;0.40;;
49440;SDS011;35317;51.978;6.296;2023-02-26T10:41:05;4.40;;;0.70;;
49440;SDS011;35317;51.978;6.296;2023-02-26T10:51:39;2.78;;;0.63;;
49440;SDS011;35317;51.978;6.296;2023-02-26T10:56:39;5.30;;;1.02;;
49440;SDS011;35317;51.978;6.296;2023-02-26T11:01:40;1.73;;;0.50;;
49440;SDS011;35317;51.978;6.296;2023-02-26T11:06:48;7.95;;;0.90;;
49440;SDS011;35317;51.978;6.296;2023-02-26T11:17:17;3.35;;;0.60;;
49440;SDS011;35317;51.978;6.296;2023-02-26T11:22:28;2.25;;;0.77;;
49440;SDS011;35317;51.978;6.296;2023-02-26T11:27:36;6.05;;;0.73;;
49440;SDS011;35317;51.978;6.296;2023-02-26T11:32:37;6.70;;;0.90;;
49440;SDS011;35317;51.978;6.296;2023-02-26T11:37:39;2.70;;;0.50;;
49440;SDS011;35317;51.978;6.296;2023-02-26T11:42:48;2.78;;;0.75;;
49440;SDS011;35317;51.978;6.296;2023-02-26T11:47:58;4.07;;;0.55;;
49440;SDS011;35317;51.978;6.296;2023-02-26T11:53:05;2.72;;;0.60;;
49440;SDS011;35317;51.978;6.296;2023-02-26T11:58:22;3.28;;;0.57;;
49440;SDS011;35317;51.978;6.296;2023-02-26T12:03:27;2.60;;;0.80;;
49440;SDS011;35317;51.978;6.296;2023-02-26T12:08:35;4.40;;;0.70;;
49440;SDS011;35317;51.978;6.296;2023-02-26T12:19:09;3.83;;;0.57;;
49440;SDS011;35317;51.978;6.296;2023-02-26T12:35:35;6.10;;;0.50;;
49440;SDS011;35317;51.978;6.296;2023-02-26T12:51:51;3.47;;;0.60;;
49440;SDS011;35317;51.978;6.296;2023-02-26T12:57:13;4.55;;;0.75;;
49440;SDS011;35317;51.978;6.296;2023-02-26T13:24:25;1.52;;;0.70;;
49440;SDS011;35317;51.978;6.296;2023-02-26T13:30:03;1.60;;;0.65;;
49440;SDS011;35317;51.978;6.296;2023-02-26T13:40:41;2.45;;;0.65;;
49440;SDS011;35317;51.978;6.296;2023-02-26T13:51:26;2.50;;;0.82;;
49440;SDS011;35317;51.978;6.296;2023-02-26T14:01:48;3.40;;;0.90;;
49440;SDS011;35317;51.978;6.296;2023-02-26T14:07:12;1.65;;;0.50;;
49440;SDS011;35317;51.978;6.296;2023-02-26T14:22:19;2.33;;;0.77;;
49440;SDS011;35317;51.978;6.296;2023-02-26T14:27:40;1.90;;;0.73;;
49440;SDS011;35317;51.978;6.296;2023-02-26T14:32:52;2.20;;;0.70;;
49440;SDS011;35317;51.978;6.296;2023-02-26T14:38:11;4.18;;;0.80;;
49440;SDS011;35317;51.978;6.296;2023-02-26T14:43:30;1.70;;;0.60;;
49440;SDS011;35317;51.978;6.296;2023-02-26T14:48:37;1.60;;;0.50;;
49440;SDS011;35317;51.978;6.296;2023-02-26T14:58:59;2.95;;;0.65;;
49440;SDS011;35317;51.978;6.296;2023-02-26T15:04:10;1.63;;;0.50;;
49440;SDS011;35317;51.978;6.296;2023-02-26T15:09:32;1.15;;;0.60;;
49440;SDS011;35317;51.978;6.296;2023-02-26T15:20:49;2.05;;;0.50;;
49440;SDS011;35317;51.978;6.296;2023-02-26T15:26:16;2.13;;;0.65;;
49440;SDS011;35317;51.978;6.296;2023-02-26T15:31:30;1.10;;;0.40;;
49440;SDS011;35317;51.978;6.296;2023-02-26T15:36:35;1.58;;;0.80;;
49440;SDS011;35317;51.978;6.296;2023-02-26T15:41:36;2.50;;;0.70;;
49440;SDS011;35317;51.978;6.296;2023-02-26T15:46:40;4.53;;;1.15;;
49440;SDS011;35317;51.978;6.296;2023-02-26T15:51:47;3.45;;;0.40;;
49440;SDS011;35317;51.978;6.296;2023-02-26T15:56:50;2.97;;;0.68;;
49440;SDS011;35317;51.978;6.296;2023-02-26T16:01:52;1.85;;;0.52;;
49440;SDS011;35317;51.978;6.296;2023-02-26T16:06:55;0.93;;;0.47;;
49440;SDS011;35317;51.978;6.296;2023-02-26T16:11:57;0.63;;;0.40;;
49440;SDS011;35317;51.978;6.296;2023-02-26T16:17:04;1.65;;;0.50;;
49440;SDS011;35317;51.978;6.296;2023-02-26T16:22:24;1.80;;;0.50;;
49440;SDS011;35317;51.978;6.296;2023-02-26T16:27:34;1.42;;;0.73;;
49440;SDS011;35317;51.978;6.296;2023-02-26T16:32:35;3.80;;;0.60;;
49440;SDS011;35317;51.978;6.296;2023-02-26T16:37:36;2.53;;;0.73;;
49440;SDS011;35317;51.978;6.296;2023-02-26T16:47:50;2.00;;;0.60;;
49440;SDS011;35317;51.978;6.296;2023-02-26T16:58:15;1.70;;;0.55;;
49440;SDS011;35317;51.978;6.296;2023-02-26T17:03:20;3.47;;;1.35;;
49440;SDS011;35317;51.978;6.296;2023-02-26T17:08:25;3.20;;;0.90;;
49440;SDS011;35317;51.978;6.296;2023-02-26T17:13:33;2.63;;;0.70;;
49440;SDS011;35317;51.978;6.296;2023-02-26T17:18:34;2.50;;;0.90;;
49440;SDS011;35317;51.978;6.296;2023-02-26T17:23:36;3.05;;;0.80;;
49440;SDS011;35317;51.978;6.296;2023-02-26T17:28:39;0.68;;;0.38;;
49440;SDS011;35317;51.978;6.296;2023-02-26T17:33:42;2.30;;;0.70;;
49440;SDS011;35317;51.978;6.296;2023-02-26T17:38:44;3.38;;;1.02;;
49440;SDS011;35317;51.978;6.296;2023-02-26T17:43:46;3.22;;;1.35;;
49440;SDS011;35317;51.978;6.296;2023-02-26T17:48:47;8.80;;;2.40;;
49440;SDS011;35317;51.978;6.296;2023-02-26T17:53:47;13.65;;;4.38;;
49440;SDS011;35317;51.978;6.296;2023-02-26T17:58:49;24.33;;;8.57;;
49440;SDS011;35317;51.978;6.296;2023-02-26T18:03:50;6.85;;;1.95;;
49440;SDS011;35317;51.978;6.296;2023-02-26T18:08:53;5.85;;;1.65;;
49440;SDS011;35317;51.978;6.296;2023-02-26T18:13:54;6.88;;;1.85;;
49440;SDS011;35317;51.978;6.296;2023-02-26T18:18:55;4.25;;;1.45;;
49440;SDS011;35317;51.978;6.296;2023-02-26T18:23:57;7.85;;;1.15;;
49440;SDS011;35317;51.978;6.296;2023-02-26T18:29:00;6.72;;;1.30;;
49440;SDS011;35317;51.978;6.296;2023-02-26T18:34:01;4.70;;;1.17;;
49440;SDS011;35317;51.978;6.296;2023-02-26T18:39:03;6.78;;;1.00;;
49440;SDS011;35317;51.978;6.296;2023-02-26T18:44:07;5.43;;;1.30;;
49440;SDS011;35317;51.978;6.296;2023-02-26T18:49:11;10.98;;;1.60;;
49440;SDS011;35317;51.978;6.296;2023-02-26T18:54:20;6.15;;;1.33;;
49440;SDS011;35317;51.978;6.296;2023-02-26T18:59:20;4.13;;;1.10;;
49440;SDS011;35317;51.978;6.296;2023-02-26T19:04:21;4.78;;;1.00;;
49440;SDS011;35317;51.978;6.296;2023-02-26T19:09:22;6.80;;;1.10;;
49440;SDS011;35317;51.978;6.296;2023-02-26T19:14:23;3.20;;;1.30;;
49440;SDS011;35317;51.978;6.296;2023-02-26T19:19:24;5.68;;;1.20;;
49440;SDS011;35317;51.978;6.296;2023-02-26T19:24:26;10.63;;;2.80;;
49440;SDS011;35317;51.978;6.296;2023-02-26T19:29:26;7.85;;;2.13;;
49440;SDS011;35317;51.978;6.296;2023-02-26T19:34:27;7.88;;;1.55;;
49440;SDS011;35317;51.978;6.296;2023-02-26T19:39:28;4.45;;;1.50;;
49440;SDS011;35317;51.978;6.296;2023-02-26T19:44:30;6.25;;;1.80;;
49440;SDS011;35317;51.978;6.296;2023-02-26T19:49:31;7.82;;;1.90;;
49440;SDS011;35317;51.978;6.296;2023-02-26T19:54:33;3.72;;;1.13;;
49440;SDS011;35317;51.978;6.296;2023-02-26T19:59:36;4.28;;;1.40;;
49440;SDS011;35317;51.978;6.296;2023-02-26T20:04:36;11.38;;;4.32;;
49440;SDS011;35317;51.978;6.296;2023-02-26T20:09:37;9.60;;;2.90;;
49440;SDS011;35317;51.978;6.296;2023-02-26T20:14:38;12.73;;;2.60;;
49440;SDS011;35317;51.978;6.296;2023-02-26T20:19:39;5.25;;;1.83;;
49440;SDS011;35317;51.978;6.296;2023-02-26T20:24:39;6.57;;;2.10;;
49440;SDS011;35317;51.978;6.296;2023-02-26T20:29:40;7.05;;;1.67;;
49440;SDS011;35317;51.978;6.296;2023-02-26T20:34:41;5.28;;;2.00;;
49440;SDS011;35317;51.978;6.296;2023-02-26T20:39:42;7.15;;;2.63;;
49440;SDS011;35317;51.978;6.296;2023-02-26T20:44:43;7.78;;;2.38;;
49440;SDS011;35317;51.978;6.296;2023-02-26T20:49:43;5.18;;;1.70;;
49440;SDS011;35317;51.978;6.296;2023-02-26T20:54:44;6.95;;;2.85;;
49440;SDS011;35317;51.978;6.296;2023-02-26T20:59:45;7.00;;;3.30;;
49440;SDS011;35317;51.978;6.296;2023-02-26T21:04:46;12.18;;;4.15;;
49440;SDS011;35317;51.978;6.296;2023-02-26T21:09:48;14.02;;;2.65;;
49440;SDS011;35317;51.978;6.296;2023-02-26T21:14:50;11.67;;;2.57;;
49440;SDS011;35317;51.978;6.296;2023-02-26T21:19:53;13.05;;;2.80;;
49440;SDS011;35317;51.978;6.296;2023-02-26T21:24:54;9.85;;;2.85;;
49440;SDS011;35317;51.978;6.296;2023-02-26T21:29:54;8.40;;;2.20;;
49440;SDS011;35317;51.978;6.296;2023-02-26T21:34:55;7.97;;;2.70;;
49440;SDS011;35317;51.978;6.296;2023-02-26T21:39:57;10.32;;;2.60;;
49440;SDS011;35317;51.978;6.296;2023-02-26T21:44:58;7.15;;;2.13;;
49440;SDS011;35317;51.978;6.296;2023-02-26T21:49:59;6.95;;;1.90;;
49440;SDS011;35317;51.978;6.296;2023-02-26T21:55:00;6.95;;;2.10;;
49440;SDS011;35317;51.978;6.296;2023-02-26T22:00:01;8.82;;;2.88;;
49440;SDS011;35317;51.978;6.296;2023-02-26T22:05:05;11.13;;;2.45;;
49440;SDS011;35317;51.978;6.296;2023-02-26T22:10:06;10.57;;;2.72;;
49440;SDS011;35317;51.978;6.296;2023-02-26T22:15:11;9.55;;;2.38;;
49440;SDS011;35317;51.978;6.296;2023-02-26T22:20:12;11.70;;;3.33;;
49440;SDS011;35317;51.978;6.296;2023-02-26T22:25:14;7.75;;;2.85;;
49440;SDS011;35317;51.978;6.296;2023-02-26T22:30:15;7.97;;;3.28;;
49440;SDS011;35317;51.978;6.296;2023-02-26T22:35:16;9.10;;;2.80;;
49440;SDS011;35317;51.978;6.296;2023-02-26T22:40:17;8.77;;;3.33;;
49440;SDS011;35317;51.978;6.296;2023-02-26T22:45:18;10.25;;;3.80;;
49440;SDS011;35317;51.978;6.296;2023-02-26T22:50:20;13.15;;;3.45;;
49440;SDS011;35317;51.978;6.296;2023-02-26T22:55:21;5.90;;;2.80;;
49440;SDS011;35317;51.978;6.296;2023-02-26T23:00:22;5.50;;;2.70;;
49440;SDS011;35317;51.978;6.296;2023-02-26T23:05:23;8.27;;;2.85;;
49440;SDS011;35317;51.978;6.296;2023-02-26T23:10:23;8.27;;;2.90;;
49440;SDS011;35317;51.978;6.296;2023-02-26T23:15:24;8.30;;;2.50;;
49440;SDS011;35317;51.978;6.296;2023-02-26T23:20:25;6.38;;;2.78;;
49440;SDS011;35317;51.978;6.296;2023-02-26T23:25:26;6.75;;;2.47;;
49440;SDS011;35317;51.978;6.296;2023-02-26T23:30:27;11.25;;;2.80;;
49440;SDS011;35317;51.978;6.296;2023-02-26T23:35:28;8.82;;;2.85;;
49440;SDS011;35317;51.978;6.296;2023-02-26T23:40:29;7.53;;;2.50;;
49440;SDS011;35317;51.978;6.296;2023-02-26T23:45:30;6.97;;;2.30;;
49440;SDS011;35317;51.978;6.296;2023-02-26T23:50:31;8.82;;;3.00;;
49440;SDS011;35317;51.978;6.296;2023-02-26T23:55:32;8.63;;;2.58;;
